createdAt,value
2023-04-26T00:00:16.054Z,18.3
2023-04-26T00:00:32.136Z,18.31
2023-04-26T00:00:48.224Z,18.31
2023-04-26T00:01:04.316Z,18.3
2023-04-26T00:01:20.408Z,18.3
2023-04-26T00:01:36.522Z,18.3
2023-04-26T00:01:52.632Z,18.3
2023-04-26T00:02:08.704Z,18.31
2023-04-26T00:02:25.018Z,18.3
2023-04-26T00:02:40.965Z,18.31
2023-04-26T00:02:57.105Z,18.3
2023-04-26T00:03:13.454Z,18.3
2023-04-26T00:03:29.834Z,18.3
2023-04-26T00:03:45.520Z,18.3
2023-04-26T00:04:01.611Z,18.3
2023-04-26T00:04:17.753Z,18.3
2023-04-26T00:04:33.749Z,18.3
2023-04-26T00:04:49.855Z,18.29
2023-04-26T00:05:05.872Z,18.3
2023-04-26T00:05:21.957Z,18.3
2023-04-26T00:05:37.936Z,18.3
2023-04-26T00:05:54.104Z,18.3
2023-04-26T00:06:10.123Z,18.3
2023-04-26T00:06:26.130Z,18.3
2023-04-26T00:06:42.277Z,18.29
2023-04-26T00:06:58.405Z,18.29
2023-04-26T00:07:14.521Z,18.3
2023-04-26T00:07:30.626Z,18.29
2023-04-26T00:07:46.686Z,18.29
2023-04-26T00:08:02.772Z,18.29
2023-04-26T00:08:18.878Z,18.29
2023-04-26T00:08:35.013Z,18.29
2023-04-26T00:08:57.207Z,18.3
2023-04-26T00:09:13.347Z,18.3
2023-04-26T00:09:29.399Z,18.3
2023-04-26T00:09:45.505Z,18.29
2023-04-26T00:10:01.613Z,18.3
2023-04-26T00:10:17.672Z,18.3
2023-04-26T00:10:33.768Z,18.3
2023-04-26T00:10:49.866Z,18.29
2023-04-26T00:11:05.969Z,18.29
2023-04-26T00:11:22.065Z,18.3
2023-04-26T00:11:38.175Z,18.29
2023-04-26T00:11:54.266Z,18.29
2023-04-26T00:12:10.356Z,18.3
2023-04-26T00:12:26.460Z,18.29
2023-04-26T00:12:42.521Z,18.29
2023-04-26T00:12:58.619Z,18.29
2023-04-26T00:13:14.718Z,18.29
2023-04-26T00:13:30.806Z,18.29
2023-04-26T00:13:46.902Z,18.29
2023-04-26T00:14:03.019Z,18.29
2023-04-26T00:14:19.158Z,18.28
2023-04-26T00:14:35.194Z,18.28
2023-04-26T00:14:51.282Z,18.28
2023-04-26T00:15:07.360Z,18.28
2023-04-26T00:15:23.491Z,18.29
2023-04-26T00:15:39.569Z,18.28
2023-04-26T00:15:55.684Z,18.28
2023-04-26T00:16:11.787Z,18.29
2023-04-26T00:16:27.908Z,18.29
2023-04-26T00:16:44.053Z,18.28
2023-04-26T00:17:00.043Z,18.28
2023-04-26T00:17:16.131Z,18.28
2023-04-26T00:17:32.285Z,18.29
2023-04-26T00:17:48.342Z,18.29
2023-04-26T00:18:04.469Z,18.28
2023-04-26T00:18:20.559Z,18.29
2023-04-26T00:18:36.666Z,18.29
2023-04-26T00:18:53.163Z,18.29
2023-04-26T00:19:08.813Z,18.28
2023-04-26T00:19:24.935Z,18.29
2023-04-26T00:19:41.019Z,18.29
2023-04-26T00:19:57.062Z,18.29
2023-04-26T00:20:13.209Z,18.29
2023-04-26T00:20:29.265Z,18.29
2023-04-26T00:20:45.366Z,18.29
2023-04-26T00:21:01.468Z,18.28
2023-04-26T00:21:17.540Z,18.29
2023-04-26T00:21:33.693Z,18.28
2023-04-26T00:21:49.746Z,18.28
2023-04-26T00:22:05.767Z,18.28
2023-04-26T00:22:21.926Z,18.28
2023-04-26T00:22:38.054Z,18.28
2023-04-26T00:22:54.094Z,18.27
2023-04-26T00:23:10.222Z,18.28
2023-04-26T00:23:26.381Z,18.28
2023-04-26T00:23:42.386Z,18.27
2023-04-26T00:23:58.506Z,18.28
2023-04-26T00:24:14.591Z,18.27
2023-04-26T00:24:30.676Z,18.27
2023-04-26T00:24:46.802Z,18.28
2023-04-26T00:25:02.896Z,18.27
2023-04-26T00:25:18.996Z,18.27
2023-04-26T00:25:35.062Z,18.27
2023-04-26T00:25:51.177Z,18.27
2023-04-26T00:26:07.282Z,18.27
2023-04-26T00:26:23.351Z,18.27
2023-04-26T00:26:39.445Z,18.27
2023-04-26T00:26:55.518Z,18.26
2023-04-26T00:27:11.630Z,18.26
2023-04-26T00:27:27.740Z,18.26
2023-04-26T00:27:43.828Z,18.26
2023-04-26T00:27:59.898Z,18.26
2023-04-26T00:28:16.009Z,18.26
2023-04-26T00:28:32.091Z,18.27
2023-04-26T00:28:48.141Z,18.26
2023-04-26T00:29:04.296Z,18.26
2023-04-26T00:29:20.380Z,18.26
2023-04-26T00:29:36.515Z,18.27
2023-04-26T00:29:52.591Z,18.27
2023-04-26T00:30:08.653Z,18.27
2023-04-26T00:30:24.774Z,18.27
2023-04-26T00:30:40.842Z,18.27
2023-04-26T00:30:56.931Z,18.27
2023-04-26T00:31:13.085Z,18.27
2023-04-26T00:31:29.151Z,18.27
2023-04-26T00:31:45.284Z,18.27
2023-04-26T00:32:01.395Z,18.27
2023-04-26T00:32:17.408Z,18.27
2023-04-26T00:32:33.592Z,18.26
2023-04-26T00:32:49.657Z,18.27
2023-04-26T00:33:05.773Z,18.26
2023-04-26T00:33:21.799Z,18.27
2023-04-26T00:33:37.894Z,18.27
2023-04-26T00:33:54.000Z,18.26
2023-04-26T00:34:10.132Z,18.26
2023-04-26T00:34:26.199Z,18.26
2023-04-26T00:34:42.285Z,18.27
2023-04-26T00:34:58.352Z,18.27
2023-04-26T00:35:14.468Z,18.27
2023-04-26T00:35:30.554Z,18.26
2023-04-26T00:35:46.664Z,18.26
2023-04-26T00:36:02.740Z,18.26
2023-04-26T00:36:18.866Z,18.26
2023-04-26T00:36:34.987Z,18.26
2023-04-26T00:36:51.026Z,18.25
2023-04-26T00:37:07.119Z,18.25
2023-04-26T00:37:23.217Z,18.25
2023-04-26T00:37:39.313Z,18.26
2023-04-26T00:37:55.383Z,18.26
2023-04-26T00:38:11.553Z,18.25
2023-04-26T00:38:27.604Z,18.25
2023-04-26T00:38:43.654Z,18.25
2023-04-26T00:38:59.795Z,18.24
2023-04-26T00:39:31.983Z,18.26
2023-04-26T00:39:48.077Z,18.25
2023-04-26T00:40:04.192Z,18.25
2023-04-26T00:40:20.247Z,18.25
2023-04-26T00:40:36.340Z,18.26
2023-04-26T00:40:52.448Z,18.26
2023-04-26T00:41:08.442Z,18.26
2023-04-26T00:41:24.630Z,18.25
2023-04-26T00:41:40.712Z,18.25
2023-04-26T00:41:56.810Z,18.25
2023-04-26T00:42:12.912Z,18.25
2023-04-26T00:42:29.007Z,18.25
2023-04-26T00:42:45.140Z,18.25
2023-04-26T00:43:01.198Z,18.25
2023-04-26T00:43:17.291Z,18.25
2023-04-26T00:43:33.391Z,18.25
2023-04-26T00:43:49.542Z,18.25
2023-04-26T00:44:05.592Z,18.25
2023-04-26T00:44:21.678Z,18.25
2023-04-26T00:44:37.771Z,18.25
2023-04-26T00:44:53.856Z,18.24
2023-04-26T00:45:09.941Z,18.25
2023-04-26T00:45:26.068Z,18.25
2023-04-26T00:45:42.230Z,18.26
2023-04-26T00:45:58.260Z,18.24
2023-04-26T00:46:14.401Z,18.25
2023-04-26T00:46:30.410Z,18.25
2023-04-26T00:46:46.541Z,18.24
2023-04-26T00:47:02.612Z,18.24
2023-04-26T00:47:18.709Z,18.25
2023-04-26T00:47:34.816Z,18.24
2023-04-26T00:47:50.964Z,18.25
2023-04-26T00:48:07.063Z,18.25
2023-04-26T00:48:23.088Z,18.24
2023-04-26T00:48:39.155Z,18.24
2023-04-26T00:48:55.291Z,18.24
2023-04-26T00:49:11.376Z,18.23
2023-04-26T00:49:27.459Z,18.23
2023-04-26T00:49:43.574Z,18.23
2023-04-26T00:49:59.653Z,18.24
2023-04-26T00:50:15.791Z,18.24
2023-04-26T00:50:31.832Z,18.23
2023-04-26T00:50:47.969Z,18.24
2023-04-26T00:51:04.038Z,18.24
2023-04-26T00:51:20.141Z,18.24
2023-04-26T00:51:36.218Z,18.24
2023-04-26T00:51:52.317Z,18.23
2023-04-26T00:52:08.396Z,18.24
2023-04-26T00:52:24.506Z,18.24
2023-04-26T00:52:40.590Z,18.23
2023-04-26T00:52:56.696Z,18.23
2023-04-26T00:53:12.766Z,18.23
2023-04-26T00:53:28.807Z,18.23
2023-04-26T00:53:44.956Z,18.24
2023-04-26T00:54:01.071Z,18.23
2023-04-26T00:54:17.156Z,18.24
2023-04-26T00:54:33.185Z,18.24
2023-04-26T00:54:49.343Z,18.24
2023-04-26T00:55:05.456Z,18.24
2023-04-26T00:55:21.645Z,18.23
2023-04-26T00:55:37.738Z,18.23
2023-04-26T00:55:53.754Z,18.23
2023-04-26T00:56:09.888Z,18.24
2023-04-26T00:56:25.949Z,18.23
2023-04-26T00:56:42.015Z,18.23
2023-04-26T00:56:58.130Z,18.23
2023-04-26T00:57:14.188Z,18.24
2023-04-26T00:57:30.284Z,18.23
2023-04-26T00:57:46.411Z,18.24
2023-04-26T00:58:02.484Z,18.23
2023-04-26T00:58:18.572Z,18.23
2023-04-26T00:58:34.659Z,18.23
2023-04-26T00:58:51.091Z,18.23
2023-04-26T00:59:06.853Z,18.23
2023-04-26T00:59:22.954Z,18.22
2023-04-26T00:59:39.072Z,18.23
2023-04-26T00:59:55.292Z,18.22
2023-04-26T01:00:11.991Z,18.23
2023-04-26T01:00:27.338Z,18.23
2023-04-26T01:00:43.472Z,18.23
2023-04-26T01:00:59.573Z,18.23
2023-04-26T01:01:15.562Z,18.23
2023-04-26T01:01:31.750Z,18.22
2023-04-26T01:01:47.821Z,18.23
2023-04-26T01:02:03.921Z,18.23
2023-04-26T01:02:20.098Z,18.23
2023-04-26T01:02:42.311Z,18.23
2023-04-26T01:02:58.447Z,18.23
2023-04-26T01:03:14.581Z,18.22
2023-04-26T01:03:30.674Z,18.22
2023-04-26T01:03:46.700Z,18.23
2023-04-26T01:04:03.017Z,18.22
2023-04-26T01:04:18.959Z,18.22
2023-04-26T01:04:35.025Z,18.22
2023-04-26T01:04:50.969Z,18.23
2023-04-26T01:05:07.132Z,18.22
2023-04-26T01:05:23.197Z,18.22
2023-04-26T01:05:39.285Z,18.22
2023-04-26T01:05:55.363Z,18.22
2023-04-26T01:06:11.444Z,18.22
2023-04-26T01:06:27.556Z,18.22
2023-04-26T01:06:43.643Z,18.22
2023-04-26T01:06:59.740Z,18.22
2023-04-26T01:07:15.831Z,18.22
2023-04-26T01:07:31.924Z,18.22
2023-04-26T01:07:48.021Z,18.22
2023-04-26T01:08:04.112Z,18.22
2023-04-26T01:08:20.198Z,18.22
2023-04-26T01:08:36.337Z,18.22
2023-04-26T01:08:52.622Z,18.22
2023-04-26T01:09:08.485Z,18.22
2023-04-26T01:09:24.622Z,18.22
2023-04-26T01:09:40.716Z,18.22
2023-04-26T01:09:56.780Z,18.22
2023-04-26T01:10:12.875Z,18.22
2023-04-26T01:10:28.975Z,18.21
2023-04-26T01:10:45.073Z,18.22
2023-04-26T01:11:01.165Z,18.22
2023-04-26T01:11:17.239Z,18.22
2023-04-26T01:11:33.380Z,18.22
2023-04-26T01:11:49.437Z,18.22
2023-04-26T01:12:05.659Z,18.23
2023-04-26T01:12:21.621Z,18.22
2023-04-26T01:12:37.707Z,18.23
2023-04-26T01:12:53.815Z,18.22
2023-04-26T01:13:09.890Z,18.22
2023-04-26T01:13:26.008Z,18.22
2023-04-26T01:13:42.103Z,18.22
2023-04-26T01:13:58.192Z,18.22
2023-04-26T01:14:14.288Z,18.22
2023-04-26T01:14:30.384Z,18.22
2023-04-26T01:14:46.472Z,18.22
2023-04-26T01:15:02.554Z,18.21
2023-04-26T01:15:18.718Z,18.21
2023-04-26T01:15:34.756Z,18.21
2023-04-26T01:15:50.862Z,18.21
2023-04-26T01:16:06.939Z,18.21
2023-04-26T01:16:23.048Z,18.21
2023-04-26T01:16:39.210Z,18.22
2023-04-26T01:16:55.168Z,18.21
2023-04-26T01:17:11.423Z,18.21
2023-04-26T01:17:27.499Z,18.22
2023-04-26T01:17:43.520Z,18.21
2023-04-26T01:17:59.674Z,18.21
2023-04-26T01:18:15.710Z,18.22
2023-04-26T01:18:31.789Z,18.22
2023-04-26T01:18:47.923Z,18.21
2023-04-26T01:19:03.982Z,18.21
2023-04-26T01:19:20.090Z,18.21
2023-04-26T01:19:36.233Z,18.21
2023-04-26T01:19:52.275Z,18.21
2023-04-26T01:20:08.356Z,18.21
2023-04-26T01:20:24.439Z,18.21
2023-04-26T01:20:40.556Z,18.21
2023-04-26T01:20:56.665Z,18.21
2023-04-26T01:21:12.737Z,18.21
2023-04-26T01:21:28.844Z,18.21
2023-04-26T01:21:44.919Z,18.21
2023-04-26T01:22:01.014Z,18.21
2023-04-26T01:22:17.118Z,18.21
2023-04-26T01:22:33.237Z,18.2
2023-04-26T01:22:49.303Z,18.21
2023-04-26T01:23:05.409Z,18.2
2023-04-26T01:23:21.520Z,18.2
2023-04-26T01:23:37.509Z,18.2
2023-04-26T01:23:53.743Z,18.21
2023-04-26T01:24:09.799Z,18.21
2023-04-26T01:24:25.916Z,18.21
2023-04-26T01:24:41.975Z,18.2
2023-04-26T01:24:58.104Z,18.2
2023-04-26T01:25:14.194Z,18.21
2023-04-26T01:25:30.261Z,18.2
2023-04-26T01:25:46.359Z,18.21
2023-04-26T01:26:02.428Z,18.2
2023-04-26T01:26:18.506Z,18.21
2023-04-26T01:26:34.636Z,18.2
2023-04-26T01:26:50.723Z,18.21
2023-04-26T01:27:06.819Z,18.2
2023-04-26T01:27:22.902Z,18.2
2023-04-26T01:27:39.008Z,18.2
2023-04-26T01:27:55.078Z,18.2
2023-04-26T01:28:11.207Z,18.2
2023-04-26T01:28:27.283Z,18.2
2023-04-26T01:28:43.370Z,18.2
2023-04-26T01:28:59.469Z,18.2
2023-04-26T01:29:15.476Z,18.2
2023-04-26T01:29:31.676Z,18.2
2023-04-26T01:29:47.808Z,18.2
2023-04-26T01:30:03.864Z,18.2
2023-04-26T01:30:19.968Z,18.2
2023-04-26T01:30:36.069Z,18.2
2023-04-26T01:30:52.182Z,18.19
2023-04-26T01:31:08.303Z,18.2
2023-04-26T01:31:24.340Z,18.2
2023-04-26T01:31:40.415Z,18.2
2023-04-26T01:31:56.522Z,18.2
2023-04-26T01:32:12.607Z,18.2
2023-04-26T01:32:28.731Z,18.2
2023-04-26T01:32:44.842Z,18.19
2023-04-26T01:33:00.929Z,18.2
2023-04-26T01:33:16.982Z,18.2
2023-04-26T01:33:33.098Z,18.2
2023-04-26T01:33:49.169Z,18.2
2023-04-26T01:34:05.293Z,18.2
2023-04-26T01:34:21.400Z,18.2
2023-04-26T01:34:37.464Z,18.2
2023-04-26T01:34:53.557Z,18.2
2023-04-26T01:35:09.639Z,18.19
2023-04-26T01:35:25.728Z,18.19
2023-04-26T01:35:41.872Z,18.19
2023-04-26T01:35:57.927Z,18.2
2023-04-26T01:36:14.046Z,18.19
2023-04-26T01:36:30.179Z,18.2
2023-04-26T01:36:46.221Z,18.2
2023-04-26T01:37:02.303Z,18.19
2023-04-26T01:37:18.393Z,18.19
2023-04-26T01:37:34.482Z,18.19
2023-04-26T01:37:50.628Z,18.19
2023-04-26T01:38:06.863Z,18.2
2023-04-26T01:38:22.768Z,18.19
2023-04-26T01:38:38.867Z,18.19
2023-04-26T01:38:54.960Z,18.19
2023-04-26T01:39:11.052Z,18.19
2023-04-26T01:39:27.172Z,18.19
2023-04-26T01:39:43.278Z,18.19
2023-04-26T01:39:59.358Z,18.19
2023-04-26T01:40:15.438Z,18.19
2023-04-26T01:40:31.558Z,18.19
2023-04-26T01:40:47.649Z,18.19
2023-04-26T01:41:03.725Z,18.19
2023-04-26T01:41:19.809Z,18.19
2023-04-26T01:41:35.920Z,18.19
2023-04-26T01:41:52.016Z,18.19
2023-04-26T01:42:08.121Z,18.19
2023-04-26T01:42:24.172Z,18.19
2023-04-26T01:42:40.269Z,18.19
2023-04-26T01:42:56.398Z,18.19
2023-04-26T01:43:12.484Z,18.19
2023-04-26T01:43:28.559Z,18.18
2023-04-26T01:43:44.570Z,18.18
2023-04-26T01:44:00.773Z,18.19
2023-04-26T01:44:16.916Z,18.18
2023-04-26T01:44:32.993Z,18.19
2023-04-26T01:44:49.037Z,18.19
2023-04-26T01:45:05.133Z,18.19
2023-04-26T01:45:21.234Z,18.19
2023-04-26T01:45:40.074Z,18.18
2023-04-26T01:45:53.462Z,18.18
2023-04-26T01:46:09.518Z,18.19
2023-04-26T01:46:25.647Z,18.19
2023-04-26T01:46:41.774Z,18.18
2023-04-26T01:46:57.795Z,18.18
2023-04-26T01:47:13.903Z,18.18
2023-04-26T01:47:30.013Z,18.18
2023-04-26T01:47:46.088Z,18.18
2023-04-26T01:48:02.231Z,18.18
2023-04-26T01:48:18.294Z,18.18
2023-04-26T01:48:34.349Z,18.18
2023-04-26T01:49:06.582Z,18.18
2023-04-26T01:49:22.629Z,18.17
2023-04-26T01:49:38.737Z,18.18
2023-04-26T01:49:54.836Z,18.18
2023-04-26T01:50:10.944Z,18.18
2023-04-26T01:50:26.941Z,18.18
2023-04-26T01:50:43.120Z,18.18
2023-04-26T01:50:59.212Z,18.18
2023-04-26T01:51:15.315Z,18.18
2023-04-26T01:51:31.431Z,18.17
2023-04-26T01:51:47.509Z,18.17
2023-04-26T01:52:03.578Z,18.18
2023-04-26T01:52:19.672Z,18.18
2023-04-26T01:52:35.789Z,18.17
2023-04-26T01:52:51.862Z,18.17
2023-04-26T01:53:07.961Z,18.17
2023-04-26T01:53:24.047Z,18.18
2023-04-26T01:53:40.189Z,18.17
2023-04-26T01:53:56.241Z,18.17
2023-04-26T01:54:12.381Z,18.18
2023-04-26T01:54:28.441Z,18.17
2023-04-26T01:54:44.525Z,18.17
2023-04-26T01:55:00.645Z,18.17
2023-04-26T01:55:16.704Z,18.17
2023-04-26T01:55:32.818Z,18.17
2023-04-26T01:55:48.902Z,18.17
2023-04-26T01:56:04.991Z,18.17
2023-04-26T01:56:27.294Z,18.18
2023-04-26T01:56:43.335Z,18.17
2023-04-26T01:56:59.452Z,18.17
2023-04-26T01:57:15.528Z,18.18
2023-04-26T01:57:31.644Z,18.17
2023-04-26T01:57:47.710Z,18.18
2023-04-26T01:58:03.829Z,18.17
2023-04-26T01:58:19.906Z,18.17
2023-04-26T01:58:35.986Z,18.17
2023-04-26T01:58:52.309Z,18.17
2023-04-26T01:59:08.229Z,18.17
2023-04-26T01:59:24.308Z,18.16
2023-04-26T01:59:40.392Z,18.17
2023-04-26T01:59:56.478Z,18.17
2023-04-26T02:00:12.565Z,18.16
2023-04-26T02:00:28.660Z,18.16
2023-04-26T02:00:44.748Z,18.17
2023-04-26T02:01:00.850Z,18.16
2023-04-26T02:01:16.994Z,18.17
2023-04-26T02:01:33.060Z,18.17
2023-04-26T02:01:49.171Z,18.17
2023-04-26T02:02:05.312Z,18.17
2023-04-26T02:02:21.333Z,18.17
2023-04-26T02:02:37.521Z,18.17
2023-04-26T02:02:53.611Z,18.16
2023-04-26T02:03:09.627Z,18.16
2023-04-26T02:03:25.737Z,18.16
2023-04-26T02:03:41.833Z,18.16
2023-04-26T02:03:57.888Z,18.16
2023-04-26T02:04:13.969Z,18.16
2023-04-26T02:04:30.122Z,18.17
2023-04-26T02:04:46.177Z,18.16
2023-04-26T02:05:02.376Z,18.16
2023-04-26T02:05:18.503Z,18.16
2023-04-26T02:05:34.459Z,18.16
2023-04-26T02:05:50.534Z,18.16
2023-04-26T02:06:06.652Z,18.16
2023-04-26T02:06:22.729Z,18.17
2023-04-26T02:06:38.816Z,18.16
2023-04-26T02:06:54.908Z,18.16
2023-04-26T02:07:11.018Z,18.16
2023-04-26T02:07:27.137Z,18.16
2023-04-26T02:07:43.208Z,18.16
2023-04-26T02:07:59.299Z,18.16
2023-04-26T02:08:15.422Z,18.16
2023-04-26T02:08:31.493Z,18.16
2023-04-26T02:08:47.597Z,18.16
2023-04-26T02:09:03.669Z,18.16
2023-04-26T02:09:19.803Z,18.16
2023-04-26T02:09:35.867Z,18.16
2023-04-26T02:09:51.988Z,18.16
2023-04-26T02:10:08.062Z,18.16
2023-04-26T02:10:24.181Z,18.16
2023-04-26T02:10:40.232Z,18.16
2023-04-26T02:10:56.357Z,18.16
2023-04-26T02:11:12.460Z,18.17
2023-04-26T02:11:28.532Z,18.16
2023-04-26T02:11:44.621Z,18.16
2023-04-26T02:12:00.715Z,18.16
2023-04-26T02:12:16.807Z,18.16
2023-04-26T02:12:32.895Z,18.16
2023-04-26T02:12:48.903Z,18.16
2023-04-26T02:13:05.114Z,18.15
2023-04-26T02:13:21.187Z,18.16
2023-04-26T02:13:37.300Z,18.16
2023-04-26T02:13:53.399Z,18.16
2023-04-26T02:14:09.470Z,18.16
2023-04-26T02:14:25.598Z,18.16
2023-04-26T02:14:41.652Z,18.15
2023-04-26T02:14:57.768Z,18.16
2023-04-26T02:15:13.864Z,18.16
2023-04-26T02:15:30.080Z,18.15
2023-04-26T02:15:46.052Z,18.15
2023-04-26T02:16:02.259Z,18.15
2023-04-26T02:16:18.253Z,18.15
2023-04-26T02:16:34.379Z,18.14
2023-04-26T02:16:50.416Z,18.14
2023-04-26T02:17:06.531Z,18.15
2023-04-26T02:17:22.608Z,18.15
2023-04-26T02:17:38.751Z,18.15
2023-04-26T02:17:54.841Z,18.15
2023-04-26T02:18:10.964Z,18.15
2023-04-26T02:18:26.991Z,18.15
2023-04-26T02:18:43.090Z,18.15
2023-04-26T02:18:59.185Z,18.15
2023-04-26T02:19:15.258Z,18.15
2023-04-26T02:19:31.416Z,18.14
2023-04-26T02:19:47.484Z,18.15
2023-04-26T02:20:03.561Z,18.14
2023-04-26T02:20:19.677Z,18.14
2023-04-26T02:20:35.763Z,18.15
2023-04-26T02:20:51.864Z,18.15
2023-04-26T02:21:07.979Z,18.15
2023-04-26T02:21:24.050Z,18.15
2023-04-26T02:21:40.125Z,18.15
2023-04-26T02:21:56.206Z,18.15
2023-04-26T02:22:12.296Z,18.15
2023-04-26T02:22:28.394Z,18.15
2023-04-26T02:22:44.497Z,18.15
2023-04-26T02:23:00.587Z,18.16
2023-04-26T02:23:16.689Z,18.15
2023-04-26T02:23:32.806Z,18.15
2023-04-26T02:23:48.872Z,18.15
2023-04-26T02:24:05.011Z,18.15
2023-04-26T02:24:21.053Z,18.15
2023-04-26T02:24:37.189Z,18.14
2023-04-26T02:24:53.255Z,18.15
2023-04-26T02:25:09.344Z,18.15
2023-04-26T02:25:25.442Z,18.15
2023-04-26T02:25:41.540Z,18.15
2023-04-26T02:25:57.653Z,18.15
2023-04-26T02:26:13.743Z,18.15
2023-04-26T02:26:29.805Z,18.15
2023-04-26T02:26:45.900Z,18.15
2023-04-26T02:27:02.000Z,18.15
2023-04-26T02:27:18.101Z,18.15
2023-04-26T02:27:34.198Z,18.15
2023-04-26T02:27:50.314Z,18.14
2023-04-26T02:28:06.384Z,18.14
2023-04-26T02:28:22.500Z,18.14
2023-04-26T02:28:38.560Z,18.14
2023-04-26T02:28:54.820Z,18.15
2023-04-26T02:29:10.804Z,18.14
2023-04-26T02:29:42.177Z,18.14
2023-04-26T02:29:44.700Z,18.14
2023-04-26T02:29:59.031Z,18.14
2023-04-26T02:30:15.122Z,18.14
2023-04-26T02:30:31.239Z,18.14
2023-04-26T02:30:47.307Z,18.14
2023-04-26T02:31:03.526Z,18.13
2023-04-26T02:31:20.561Z,18.13
2023-04-26T02:31:35.689Z,18.14
2023-04-26T02:31:51.698Z,18.14
2023-04-26T02:32:07.827Z,18.14
2023-04-26T02:32:23.936Z,18.14
2023-04-26T02:32:40.261Z,18.14
2023-04-26T02:32:56.125Z,18.14
2023-04-26T02:33:12.220Z,18.14
2023-04-26T02:33:28.306Z,18.15
2023-04-26T02:33:44.399Z,18.14
2023-04-26T02:34:00.451Z,18.14
2023-04-26T02:34:16.548Z,18.13
2023-04-26T02:34:32.639Z,18.14
2023-04-26T02:34:48.779Z,18.13
2023-04-26T02:35:04.839Z,18.12
2023-04-26T02:35:20.928Z,18.13
2023-04-26T02:35:37.023Z,18.13
2023-04-26T02:35:53.112Z,18.13
2023-04-26T02:36:09.252Z,18.13
2023-04-26T02:36:25.313Z,18.13
2023-04-26T02:36:41.412Z,18.13
2023-04-26T02:36:57.544Z,18.13
2023-04-26T02:37:13.620Z,18.13
2023-04-26T02:37:29.678Z,18.14
2023-04-26T02:37:45.796Z,18.14
2023-04-26T02:38:01.906Z,18.14
2023-04-26T02:38:17.966Z,18.13
2023-04-26T02:38:34.083Z,18.14
2023-04-26T02:38:50.395Z,18.13
2023-04-26T02:39:06.240Z,18.13
2023-04-26T02:39:22.371Z,18.13
2023-04-26T02:39:38.431Z,18.13
2023-04-26T02:39:54.529Z,18.13
2023-04-26T02:40:10.628Z,18.13
2023-04-26T02:40:26.724Z,18.13
2023-04-26T02:40:42.817Z,18.13
2023-04-26T02:40:58.903Z,18.12
2023-04-26T02:41:15.007Z,18.13
2023-04-26T02:41:31.096Z,18.13
2023-04-26T02:41:47.212Z,18.12
2023-04-26T02:42:03.299Z,18.13
2023-04-26T02:42:19.405Z,18.12
2023-04-26T02:42:35.471Z,18.13
2023-04-26T02:42:51.576Z,18.13
2023-04-26T02:43:07.668Z,18.13
2023-04-26T02:43:23.782Z,18.13
2023-04-26T02:43:39.854Z,18.12
2023-04-26T02:43:55.950Z,18.13
2023-04-26T02:44:12.032Z,18.12
2023-04-26T02:44:28.158Z,18.13
2023-04-26T02:44:44.247Z,18.12
2023-04-26T02:45:00.326Z,18.12
2023-04-26T02:45:16.356Z,18.13
2023-04-26T02:45:32.545Z,18.12
2023-04-26T02:45:48.615Z,18.13
2023-04-26T02:46:04.706Z,18.12
2023-04-26T02:46:20.851Z,18.13
2023-04-26T02:46:36.955Z,18.12
2023-04-26T02:46:53.064Z,18.12
2023-04-26T02:47:09.138Z,18.12
2023-04-26T02:47:25.228Z,18.12
2023-04-26T02:47:41.322Z,18.13
2023-04-26T02:47:57.446Z,18.13
2023-04-26T02:48:13.472Z,18.13
2023-04-26T02:48:29.555Z,18.13
2023-04-26T02:48:45.644Z,18.13
2023-04-26T02:49:01.741Z,18.13
2023-04-26T02:49:17.848Z,18.12
2023-04-26T02:49:33.936Z,18.12
2023-04-26T02:49:50.015Z,18.12
2023-04-26T02:50:12.324Z,18.12
2023-04-26T02:50:28.355Z,18.12
2023-04-26T02:50:44.457Z,18.12
2023-04-26T02:51:00.548Z,18.12
2023-04-26T02:51:16.633Z,18.12
2023-04-26T02:51:32.876Z,18.11
2023-04-26T02:51:48.842Z,18.12
2023-04-26T02:52:04.907Z,18.12
2023-04-26T02:52:21.012Z,18.12
2023-04-26T02:52:37.104Z,18.11
2023-04-26T02:52:53.238Z,18.11
2023-04-26T02:53:09.292Z,18.11
2023-04-26T02:53:25.417Z,18.12
2023-04-26T02:53:41.485Z,18.11
2023-04-26T02:53:57.594Z,18.11
2023-04-26T02:54:13.693Z,18.11
2023-04-26T02:54:29.782Z,18.11
2023-04-26T02:54:45.877Z,18.11
2023-04-26T02:55:01.971Z,18.11
2023-04-26T02:55:18.067Z,18.11
2023-04-26T02:55:34.188Z,18.11
2023-04-26T02:55:50.258Z,18.11
2023-04-26T02:56:06.355Z,18.11
2023-04-26T02:56:22.436Z,18.12
2023-04-26T02:56:38.587Z,18.11
2023-04-26T02:56:54.632Z,18.11
2023-04-26T02:57:10.728Z,18.11
2023-04-26T02:57:26.823Z,18.11
2023-04-26T02:57:42.912Z,18.1
2023-04-26T02:57:58.992Z,18.11
2023-04-26T02:58:15.095Z,18.11
2023-04-26T02:58:31.180Z,18.11
2023-04-26T02:58:47.282Z,18.11
2023-04-26T02:59:03.367Z,18.11
2023-04-26T02:59:19.466Z,18.11
2023-04-26T02:59:35.552Z,18.11
2023-04-26T02:59:51.650Z,18.11
2023-04-26T03:00:07.775Z,18.11
2023-04-26T03:00:23.872Z,18.11
2023-04-26T03:00:40.021Z,18.11
2023-04-26T03:00:56.048Z,18.11
2023-04-26T03:01:12.196Z,18.11
2023-04-26T03:01:28.296Z,18.11
2023-04-26T03:01:44.539Z,18.11
2023-04-26T03:02:00.446Z,18.11
2023-04-26T03:02:16.628Z,18.12
2023-04-26T03:02:32.714Z,18.11
2023-04-26T03:02:48.820Z,18.11
2023-04-26T03:03:04.952Z,18.11
2023-04-26T03:03:21.087Z,18.11
2023-04-26T03:03:37.323Z,18.11
2023-04-26T03:03:53.207Z,18.11
2023-04-26T03:04:09.359Z,18.11
2023-04-26T03:04:25.371Z,18.11
2023-04-26T03:04:41.368Z,18.11
2023-04-26T03:04:57.482Z,18.11
2023-04-26T03:05:13.574Z,18.1
2023-04-26T03:05:29.644Z,18.11
2023-04-26T03:05:45.728Z,18.1
2023-04-26T03:06:01.839Z,18.1
2023-04-26T03:06:17.946Z,18.11
2023-04-26T03:06:34.046Z,18.11
2023-04-26T03:06:50.127Z,18.11
2023-04-26T03:07:06.222Z,18.1
2023-04-26T03:07:22.297Z,18.11
2023-04-26T03:07:38.323Z,18.11
2023-04-26T03:07:54.535Z,18.11
2023-04-26T03:08:10.584Z,18.11
2023-04-26T03:08:26.711Z,18.11
2023-04-26T03:08:42.932Z,18.11
2023-04-26T03:08:58.902Z,18.1
2023-04-26T03:09:14.963Z,18.11
2023-04-26T03:09:31.070Z,18.11
2023-04-26T03:09:47.167Z,18.11
2023-04-26T03:10:03.279Z,18.11
2023-04-26T03:10:19.331Z,18.1
2023-04-26T03:10:35.462Z,18.11
2023-04-26T03:10:51.527Z,18.11
2023-04-26T03:11:07.648Z,18.1
2023-04-26T03:11:23.724Z,18.1
2023-04-26T03:11:39.839Z,18.11
2023-04-26T03:11:55.919Z,18.1
2023-04-26T03:12:11.996Z,18.1
2023-04-26T03:12:28.167Z,18.1
2023-04-26T03:12:44.217Z,18.1
2023-04-26T03:13:00.279Z,18.1
2023-04-26T03:13:16.388Z,18.11
2023-04-26T03:13:32.488Z,18.1
2023-04-26T03:13:48.548Z,18.1
2023-04-26T03:14:04.707Z,18.1
2023-04-26T03:14:20.768Z,18.1
2023-04-26T03:14:36.875Z,18.1
2023-04-26T03:14:52.948Z,18.1
2023-04-26T03:15:09.033Z,18.1
2023-04-26T03:15:25.138Z,18.1
2023-04-26T03:15:41.210Z,18.1
2023-04-26T03:15:57.328Z,18.1
2023-04-26T03:16:13.458Z,18.1
2023-04-26T03:16:29.540Z,18.1
2023-04-26T03:16:45.635Z,18.09
2023-04-26T03:17:01.724Z,18.1
2023-04-26T03:17:17.808Z,18.09
2023-04-26T03:17:33.953Z,18.1
2023-04-26T03:17:50.078Z,18.1
2023-04-26T03:18:06.132Z,18.1
2023-04-26T03:18:22.188Z,18.1
2023-04-26T03:18:38.306Z,18.1
2023-04-26T03:18:54.662Z,18.1
2023-04-26T03:19:10.461Z,18.09
2023-04-26T03:19:26.552Z,18.1
2023-04-26T03:19:42.638Z,18.1
2023-04-26T03:20:00.559Z,18.1
2023-04-26T03:20:14.862Z,18.09
2023-04-26T03:20:30.947Z,18.1
2023-04-26T03:20:47.027Z,18.1
2023-04-26T03:21:03.017Z,18.09
2023-04-26T03:21:19.223Z,18.1
2023-04-26T03:21:35.307Z,18.09
2023-04-26T03:21:51.415Z,18.09
2023-04-26T03:22:07.514Z,18.1
2023-04-26T03:22:23.622Z,18.1
2023-04-26T03:22:39.670Z,18.1
2023-04-26T03:22:55.798Z,18.09
2023-04-26T03:23:11.896Z,18.09
2023-04-26T03:23:27.972Z,18.1
2023-04-26T03:23:44.056Z,18.1
2023-04-26T03:24:00.187Z,18.1
2023-04-26T03:24:16.251Z,18.09
2023-04-26T03:24:32.360Z,18.1
2023-04-26T03:24:48.448Z,18.1
2023-04-26T03:25:04.517Z,18.09
2023-04-26T03:25:20.634Z,18.09
2023-04-26T03:25:36.727Z,18.09
2023-04-26T03:25:52.829Z,18.09
2023-04-26T03:26:08.939Z,18.09
2023-04-26T03:26:25.008Z,18.09
2023-04-26T03:26:41.127Z,18.1
2023-04-26T03:26:57.183Z,18.09
2023-04-26T03:27:13.308Z,18.09
2023-04-26T03:27:29.406Z,18.1
2023-04-26T03:27:45.487Z,18.1
2023-04-26T03:28:01.565Z,18.1
2023-04-26T03:28:17.669Z,18.09
2023-04-26T03:28:33.764Z,18.09
2023-04-26T03:28:50.048Z,18.09
2023-04-26T03:29:05.939Z,18.09
2023-04-26T03:29:22.051Z,18.09